Time;durP1;ratioP1;P1;durP2;ratioP2;P2;SDS_P1;SDS_P2;PMS_P1;PMS_P2;Temp;Humidity;BMP_temperature;BMP_pressure;BME280_temperature;BME280_humidity;BME280_pressure;Samples;Min_cycle;Max_cycle;Signal;HPM_P1;HPM_P2
2022/03/27 00:02:19;;;;;;;5.57;3.55;;;;;;;;;;5032631;28;20399;-62
2022/03/27 00:04:45;;;;;;;11.27;4.00;;;;;;;;;;5050923;28;20455;-62
2022/03/27 00:07:12;;;;;;;5.47;3.42;;;;;;;;;;5051193;28;20227;-62
2022/03/27 00:09:38;;;;;;;8.38;3.80;;;;;;;;;;5049805;28;20048;-62
2022/03/27 00:12:04;;;;;;;9.40;3.75;;;;;;;;;;5052648;28;20532;-62
2022/03/27 00:14:30;;;;;;;6.53;3.72;;;;;;;;;;5042512;28;20500;-62
2022/03/27 00:16:57;;;;;;;9.70;3.78;;;;;;;;;;5052627;28;20056;-62
2022/03/27 00:19:24;;;;;;;7.72;3.97;;;;;;;;;;5031972;28;20547;-62
2022/03/27 00:21:50;;;;;;;8.90;4.68;;;;;;;;;;5050843;28;20116;-62
2022/03/27 00:24:17;;;;;;;7.03;4.20;;;;;;;;;;5050165;28;20041;-62
2022/03/27 00:26:43;;;;;;;10.15;5.38;;;;;;;;;;5032948;28;20069;-62
2022/03/27 00:29:10;;;;;;;10.95;5.00;;;;;;;;;;5050406;28;20052;-62
2022/03/27 00:31:38;;;;;;;9.98;5.28;;;;;;;;;;5048763;28;20049;-63
2022/03/27 00:34:04;;;;;;;12.52;5.40;;;;;;;;;;5065521;28;20053;-62
2022/03/27 00:36:31;;;;;;;11.75;5.63;;;;;;;;;;5050642;28;20037;-62
2022/03/27 00:38:57;;;;;;;11.98;5.57;;;;;;;;;;5049984;28;20048;-62
2022/03/27 00:41:24;;;;;;;12.18;5.47;;;;;;;;;;5031907;28;20088;-62
2022/03/27 00:43:51;;;;;;;10.18;5.95;;;;;;;;;;5050360;28;20150;-62
2022/03/27 00:46:17;;;;;;;10.30;5.28;;;;;;;;;;5049166;28;20396;-62
2022/03/27 00:48:43;;;;;;;9.70;5.95;;;;;;;;;;5050622;28;20136;-63
2022/03/27 00:51:09;;;;;;;10.45;6.15;;;;;;;;;;5049852;28;20044;-62
2022/03/27 00:53:36;;;;;;;9.82;6.10;;;;;;;;;;5050057;28;20130;-61
2022/03/27 00:56:02;;;;;;;9.68;5.55;;;;;;;;;;5050529;28;20096;-62
2022/03/27 00:58:28;;;;;;;12.05;5.78;;;;;;;;;;5049868;28;20041;-62
2022/03/27 01:01:13;;;;;;;8.43;5.68;;;;;;;;;;5031737;28;20473;-62
2022/03/27 01:03:39;;;;;;;8.32;5.55;;;;;;;;;;5065681;28;20052;-62
2022/03/27 01:06:09;;;;;;;10.85;5.82;;;;;;;;;;5049522;28;20048;-62
2022/03/27 01:11:32;;;;;;;10.85;5.57;;;;;;;;;;5047147;28;20060;-62
2022/03/27 01:13:58;;;;;;;10.77;5.30;;;;;;;;;;5049886;28;20356;-62
2022/03/27 01:16:38;;;;;;;11.20;5.82;;;;;;;;;;5049657;28;20049;-62
2022/03/27 01:19:06;;;;;;;12.38;5.80;;;;;;;;;;5062676;28;20060;-62
2022/03/27 01:21:34;;;;;;;13.80;5.80;;;;;;;;;;5064467;28;20037;-62
2022/03/27 01:24:02;;;;;;;10.93;5.60;;;;;;;;;;5048494;28;20041;-62
2022/03/27 01:26:29;;;;;;;20.15;6.20;;;;;;;;;;5031559;28;20452;-62
2022/03/27 01:28:56;;;;;;;12.93;6.47;;;;;;;;;;5049076;28;20234;-62
2022/03/27 01:31:23;;;;;;;17.48;7.07;;;;;;;;;;5031049;28;20052;-62
2022/03/27 01:33:49;;;;;;;12.00;5.55;;;;;;;;;;5064208;28;20083;-62
2022/03/27 01:36:23;;;;;;;16.17;6.85;;;;;;;;;;5031523;28;20469;-62
2022/03/27 01:38:50;;;;;;;18.30;6.53;;;;;;;;;;5031770;28;20114;-62
2022/03/27 01:41:16;;;;;;;17.77;6.13;;;;;;;;;;5048751;28;20121;-62
2022/03/27 01:43:42;;;;;;;15.90;6.43;;;;;;;;;;5048504;28;20094;-62
2022/03/27 01:46:08;;;;;;;18.55;6.90;;;;;;;;;;5064944;28;20106;-62
2022/03/27 01:48:35;;;;;;;20.48;7.95;;;;;;;;;;5045441;28;20362;-62
2022/03/27 01:51:01;;;;;;;16.60;7.70;;;;;;;;;;5048548;28;20456;-62
2022/03/27 01:53:27;;;;;;;22.65;7.43;;;;;;;;;;5049195;28;20072;-62
2022/03/27 01:55:53;;;;;;;22.80;7.93;;;;;;;;;;5048960;28;20377;-62
2022/03/27 01:58:20;;;;;;;24.92;7.75;;;;;;;;;;5050741;28;20049;-62
2022/03/27 02:00:46;;;;;;;18.05;7.68;;;;;;;;;;5053270;28;20060;-62
2022/03/27 02:03:13;;;;;;;17.48;6.45;;;;;;;;;;5035141;28;20080;-62
2022/03/27 02:05:39;;;;;;;14.05;7.32;;;;;;;;;;5069120;28;20382;-62
2022/03/27 02:08:05;;;;;;;16.77;7.07;;;;;;;;;;5053273;28;20082;-62
2022/03/27 02:10:31;;;;;;;13.38;6.95;;;;;;;;;;5049559;28;20048;-62
2022/03/27 02:12:57;;;;;;;17.98;6.55;;;;;;;;;;5053940;28;20033;-62
2022/03/27 02:15:24;;;;;;;15.95;6.82;;;;;;;;;;5052940;28;20270;-62
2022/03/27 02:17:51;;;;;;;18.52;6.82;;;;;;;;;;5034588;28;20061;-62
2022/03/27 02:20:17;;;;;;;11.77;6.85;;;;;;;;;;5064595;28;20141;-62
2022/03/27 02:22:43;;;;;;;14.38;7.93;;;;;;;;;;5045695;28;20041;-63
2022/03/27 02:25:09;;;;;;;18.92;7.88;;;;;;;;;;5030314;28;20854;-62
2022/03/27 02:27:36;;;;;;;14.88;7.80;;;;;;;;;;5067684;28;20404;-62
2022/03/27 02:30:03;;;;;;;13.23;6.90;;;;;;;;;;5052412;28;20066;-62
2022/03/27 02:32:29;;;;;;;18.38;7.40;;;;;;;;;;5052405;28;20052;-62
2022/03/27 02:34:55;;;;;;;15.68;7.47;;;;;;;;;;5052474;28;20190;-62
2022/03/27 02:37:21;;;;;;;16.48;7.03;;;;;;;;;;5052468;28;20137;-62
2022/03/27 02:39:48;;;;;;;13.48;6.50;;;;;;;;;;5051582;28;20220;-62
2022/03/27 02:42:14;;;;;;;25.40;7.10;;;;;;;;;;5051895;28;20037;-62
2022/03/27 02:44:40;;;;;;;18.80;7.28;;;;;;;;;;5052424;28;20136;-62
2022/03/27 02:47:07;;;;;;;15.07;6.63;;;;;;;;;;5052631;28;20044;-62
2022/03/27 02:49:33;;;;;;;14.35;6.60;;;;;;;;;;5052965;28;20117;-62
2022/03/27 02:51:59;;;;;;;10.88;6.28;;;;;;;;;;5052128;28;20588;-62
2022/03/27 02:54:25;;;;;;;16.20;6.70;;;;;;;;;;5052446;28;20052;-62
2022/03/27 02:56:51;;;;;;;14.63;6.30;;;;;;;;;;5034457;28;20053;-62
2022/03/27 02:59:18;;;;;;;11.90;6.45;;;;;;;;;;5051768;28;20037;-62
2022/03/27 03:01:44;;;;;;;16.45;6.10;;;;;;;;;;5052138;28;20140;-62
2022/03/27 03:04:10;;;;;;;9.68;4.28;;;;;;;;;;5034199;28;20341;-63
2022/03/27 03:06:36;;;;;;;9.05;3.90;;;;;;;;;;5052074;28;20040;-62
2022/03/27 03:09:03;;;;;;;9.85;5.40;;;;;;;;;;5052263;28;20040;-62
2022/03/27 03:11:29;;;;;;;9.25;3.83;;;;;;;;;;5051773;28;20053;-62
2022/03/27 03:13:55;;;;;;;10.45;4.05;;;;;;;;;;5051517;28;20052;-62
2022/03/27 03:16:22;;;;;;;9.27;3.97;;;;;;;;;;5050398;28;20045;-62
2022/03/27 03:18:48;;;;;;;5.88;3.38;;;;;;;;;;5052187;28;20045;-62
2022/03/27 03:21:14;;;;;;;7.20;2.35;;;;;;;;;;5066393;28;20052;-62
2022/03/27 03:23:40;;;;;;;13.27;3.42;;;;;;;;;;5052026;28;20052;-62
2022/03/27 03:26:06;;;;;;;9.73;4.05;;;;;;;;;;5051913;28;20102;-62
2022/03/27 03:28:33;;;;;;;6.55;2.67;;;;;;;;;;5051119;28;20085;-62
2022/03/27 03:30:59;;;;;;;5.50;2.40;;;;;;;;;;5068497;28;20110;-63
2022/03/27 03:33:26;;;;;;;5.70;2.35;;;;;;;;;;5033428;28;20045;-62
2022/03/27 03:35:52;;;;;;;3.53;1.88;;;;;;;;;;5051416;28;20047;-62
2022/03/27 03:38:18;;;;;;;5.72;2.33;;;;;;;;;;5049412;28;20555;-62
2022/03/27 03:40:44;;;;;;;12.38;2.92;;;;;;;;;;5050414;28;20388;-62
2022/03/27 03:43:11;;;;;;;8.63;2.90;;;;;;;;;;5051636;28;20448;-62
2022/03/27 03:45:37;;;;;;;6.00;2.35;;;;;;;;;;5051114;28;20547;-62
2022/03/27 03:48:04;;;;;;;6.05;2.22;;;;;;;;;;5050974;28;20056;-62
2022/03/27 03:50:33;;;;;;;26.52;3.53;;;;;;;;;;5033947;28;20126;-62
2022/03/27 03:52:59;;;;;;;29.92;3.60;;;;;;;;;;5033300;28;20048;-62
2022/03/27 03:55:26;;;;;;;10.52;2.35;;;;;;;;;;5050536;28;20048;-62
2022/03/27 03:57:52;;;;;;;4.70;2.30;;;;;;;;;;5049439;28;20036;-62
2022/03/27 04:00:18;;;;;;;20.80;2.78;;;;;;;;;;5051098;28;20564;-62
2022/03/27 04:02:44;;;;;;;5.72;2.30;;;;;;;;;;5032469;28;20481;-62
2022/03/27 04:05:11;;;;;;;24.50;2.80;;;;;;;;;;5051182;28;20040;-62
2022/03/27 04:07:37;;;;;;;5.50;2.10;;;;;;;;;;5033550;28;20041;-62
2022/03/27 04:10:03;;;;;;;5.45;1.63;;;;;;;;;;5057723;28;20037;-62
2022/03/27 04:12:30;;;;;;;3.65;1.50;;;;;;;;;;5051650;28;20075;-62
2022/03/27 04:14:56;;;;;;;10.35;1.90;;;;;;;;;;5051012;28;20036;-61
2022/03/27 04:17:22;;;;;;;8.63;1.85;;;;;;;;;;5032183;28;20041;-62
2022/03/27 04:19:48;;;;;;;6.13;2.50;;;;;;;;;;5032604;28;20148;-62
2022/03/27 04:22:14;;;;;;;6.50;3.10;;;;;;;;;;5049489;28;20045;-62
2022/03/27 04:24:40;;;;;;;6.22;1.75;;;;;;;;;;5032413;28;20065;-61
2022/03/27 04:27:07;;;;;;;9.63;2.00;;;;;;;;;;5062225;28;20098;-62
2022/03/27 04:29:33;;;;;;;4.20;1.20;;;;;;;;;;5062334;28;20045;-62
2022/03/27 04:31:59;;;;;;;2.28;0.93;;;;;;;;;;5046348;28;20041;-62
2022/03/27 04:34:25;;;;;;;5.30;1.38;;;;;;;;;;5047700;28;20048;-62
2022/03/27 04:36:53;;;;;;;11.35;2.30;;;;;;;;;;5047671;28;20908;-61
2022/03/27 04:39:19;;;;;;;12.85;1.88;;;;;;;;;;5065605;28;20045;-62
2022/03/27 04:41:46;;;;;;;22.48;2.10;;;;;;;;;;5050545;28;20396;-62
2022/03/27 04:44:13;;;;;;;10.15;1.60;;;;;;;;;;5065395;28;20041;-62
2022/03/27 04:46:39;;;;;;;10.73;1.27;;;;;;;;;;5050661;28;20064;-62
2022/03/27 04:49:06;;;;;;;5.95;1.58;;;;;;;;;;5050347;28;20086;-62
2022/03/27 04:51:32;;;;;;;5.05;2.13;;;;;;;;;;5049960;28;20044;-62
2022/03/27 04:53:58;;;;;;;8.18;2.00;;;;;;;;;;5065716;28;20370;-62
2022/03/27 04:56:25;;;;;;;16.70;1.90;;;;;;;;;;5064893;28;20060;-61
2022/03/27 04:58:51;;;;;;;21.50;1.83;;;;;;;;;;5031404;28;20361;-62
2022/03/27 05:01:17;;;;;;;12.45;1.60;;;;;;;;;;5032522;28;20131;-62
2022/03/27 05:03:43;;;;;;;17.92;2.20;;;;;;;;;;5035152;28;20081;-61
2022/03/27 05:06:09;;;;;;;41.20;2.50;;;;;;;;;;5049361;28;20392;-62
2022/03/27 05:08:36;;;;;;;15.80;1.48;;;;;;;;;;5049856;28;20050;-61
2022/03/27 05:11:02;;;;;;;18.80;2.00;;;;;;;;;;5050192;28;20416;-62
2022/03/27 05:13:29;;;;;;;23.42;2.20;;;;;;;;;;5064886;28;20040;-61
2022/03/27 05:15:55;;;;;;;31.63;2.08;;;;;;;;;;5050046;28;20040;-62
2022/03/27 05:18:21;;;;;;;19.88;1.77;;;;;;;;;;5049919;28;20045;-62
2022/03/27 05:20:47;;;;;;;23.17;2.50;;;;;;;;;;5029636;28;20037;-61
2022/03/27 05:23:13;;;;;;;27.77;2.15;;;;;;;;;;5049025;28;20449;-61
2022/03/27 05:25:41;;;;;;;16.42;3.00;;;;;;;;;;5046284;28;20105;-62
2022/03/27 05:28:08;;;;;;;13.60;2.10;;;;;;;;;;5048549;28;20155;-61
2022/03/27 05:30:34;;;;;;;12.38;2.35;;;;;;;;;;5031527;28;20049;-62
2022/03/27 05:33:00;;;;;;;13.85;1.90;;;;;;;;;;5051463;28;20053;-62
2022/03/27 05:35:26;;;;;;;7.32;1.77;;;;;;;;;;5065900;28;20048;-62
2022/03/27 05:37:54;;;;;;;5.53;1.75;;;;;;;;;;5049708;28;20087;-62
2022/03/27 05:40:21;;;;;;;12.43;2.30;;;;;;;;;;5029278;28;20044;-62
2022/03/27 05:42:48;;;;;;;8.60;2.42;;;;;;;;;;5031703;28;20044;-62
2022/03/27 05:45:14;;;;;;;8.85;2.13;;;;;;;;;;5031881;28;20052;-62
2022/03/27 05:47:41;;;;;;;10.23;2.22;;;;;;;;;;5030912;28;20373;-64
2022/03/27 05:50:08;;;;;;;11.85;2.17;;;;;;;;;;5063141;28;20048;-62
2022/03/27 05:52:35;;;;;;;12.70;2.35;;;;;;;;;;5049029;28;20128;-62
2022/03/27 05:55:01;;;;;;;10.68;2.20;;;;;;;;;;5048396;28;20087;-62
2022/03/27 05:57:27;;;;;;;8.70;2.08;;;;;;;;;;5049515;28;20076;-62
2022/03/27 05:59:53;;;;;;;10.65;1.80;;;;;;;;;;5049165;28;20044;-62
2022/03/27 06:02:19;;;;;;;13.77;2.00;;;;;;;;;;5030938;28;20439;-62
2022/03/27 06:04:45;;;;;;;20.23;2.80;;;;;;;;;;5064629;28;20037;-62
2022/03/27 06:07:12;;;;;;;24.42;2.45;;;;;;;;;;5049631;28;20090;-62
2022/03/27 06:09:39;;;;;;;30.45;3.35;;;;;;;;;;5030471;28;20128;-62
2022/03/27 06:12:05;;;;;;;28.90;2.70;;;;;;;;;;5031480;28;20568;-73
2022/03/27 06:14:32;;;;;;;15.68;2.20;;;;;;;;;;5049824;28;20056;-62
2022/03/27 06:16:58;;;;;;;5.72;1.73;;;;;;;;;;5061658;28;20056;-63
2022/03/27 06:19:26;;;;;;;10.77;2.78;;;;;;;;;;5030623;28;20041;-62
2022/03/27 06:21:52;;;;;;;7.25;2.17;;;;;;;;;;5048976;28;20051;-62
2022/03/27 06:24:18;;;;;;;9.63;2.35;;;;;;;;;;5048500;28;21684;-62
2022/03/27 06:26:44;;;;;;;28.23;1.92;;;;;;;;;;5049926;28;20041;-62
2022/03/27 06:29:11;;;;;;;26.92;1.83;;;;;;;;;;5043571;28;20432;-63
2022/03/27 06:31:38;;;;;;;21.00;1.70;;;;;;;;;;5045399;28;20053;-62
2022/03/27 06:34:05;;;;;;;11.80;2.38;;;;;;;;;;5059939;28;20068;-62
2022/03/27 06:36:32;;;;;;;15.05;2.50;;;;;;;;;;5067737;28;20044;-62
2022/03/27 06:38:58;;;;;;;11.00;2.63;;;;;;;;;;5049018;28;20050;-63
2022/03/27 06:41:24;;;;;;;16.30;2.75;;;;;;;;;;5046073;28;20126;-63
2022/03/27 06:43:50;;;;;;;8.75;2.70;;;;;;;;;;5048338;28;20076;-63
2022/03/27 06:46:17;;;;;;;20.63;3.83;;;;;;;;;;5032013;28;20052;-62
2022/03/27 06:48:44;;;;;;;27.77;5.35;;;;;;;;;;5052440;28;20130;-62
2022/03/27 06:51:10;;;;;;;33.45;5.32;;;;;;;;;;5032878;28;20421;-68
2022/03/27 06:53:37;;;;;;;39.00;5.70;;;;;;;;;;5068188;28;20435;-63
2022/03/27 06:56:03;;;;;;;36.85;5.85;;;;;;;;;;5034617;28;20045;-63
2022/03/27 06:58:29;;;;;;;41.05;7.47;;;;;;;;;;5056940;28;20048;-63
2022/03/27 07:03:40;;;;;;;45.33;7.00;;;;;;;;;;5050957;28;20045;-63
2022/03/27 07:06:06;;;;;;;57.20;9.00;;;;;;;;;;5049134;28;20536;-62
2022/03/27 07:08:32;;;;;;;41.45;7.43;;;;;;;;;;5044716;28;20530;-63
2022/03/27 07:10:58;;;;;;;58.75;11.20;;;;;;;;;;5030761;28;20531;-63
2022/03/27 07:13:25;;;;;;;66.05;10.00;;;;;;;;;;5059844;28;20049;-63
2022/03/27 07:15:52;;;;;;;57.55;9.18;;;;;;;;;;5049314;28;20084;-64
2022/03/27 07:18:18;;;;;;;59.10;9.90;;;;;;;;;;5051803;28;20049;-64
2022/03/27 07:20:46;;;;;;;56.08;9.18;;;;;;;;;;5051688;28;20043;-64
2022/03/27 07:23:13;;;;;;;53.70;10.48;;;;;;;;;;5068719;28;20048;-64
2022/03/27 07:25:41;;;;;;;55.63;7.68;;;;;;;;;;5051314;28;20475;-63
2022/03/27 07:28:08;;;;;;;46.20;8.80;;;;;;;;;;5052777;28;20465;-63
2022/03/27 07:30:35;;;;;;;54.97;9.20;;;;;;;;;;5055092;28;20455;-63
2022/03/27 07:33:01;;;;;;;53.38;7.88;;;;;;;;;;5036644;28;20451;-64
2022/03/27 07:35:30;;;;;;;61.08;9.68;;;;;;;;;;5052477;28;20037;-64
2022/03/27 07:37:57;;;;;;;51.83;7.78;;;;;;;;;;5067319;28;20493;-63
2022/03/27 07:40:23;;;;;;;54.05;9.05;;;;;;;;;;5067846;28;20055;-63
2022/03/27 07:42:50;;;;;;;52.00;8.38;;;;;;;;;;5049086;28;20128;-63
2022/03/27 07:45:18;;;;;;;53.25;9.55;;;;;;;;;;5046279;28;20044;-62
2022/03/27 07:47:45;;;;;;;54.25;8.45;;;;;;;;;;5044785;28;20063;-63
2022/03/27 07:50:11;;;;;;;53.30;10.50;;;;;;;;;;5048971;28;20033;-62
2022/03/27 07:52:38;;;;;;;60.33;10.25;;;;;;;;;;5052904;28;20044;-63
2022/03/27 07:55:05;;;;;;;45.42;8.70;;;;;;;;;;5052688;28;20071;-63
2022/03/27 07:57:31;;;;;;;62.00;9.75;;;;;;;;;;5053325;28;20049;-63
2022/03/27 07:59:57;;;;;;;52.58;9.88;;;;;;;;;;5035235;28;20049;-63
2022/03/27 08:02:24;;;;;;;52.45;11.15;;;;;;;;;;5052831;28;20045;-63
2022/03/27 08:04:50;;;;;;;48.10;9.98;;;;;;;;;;5053679;28;20063;-63
2022/03/27 08:07:16;;;;;;;54.22;9.38;;;;;;;;;;5053539;28;20374;-63
2022/03/27 08:09:43;;;;;;;49.35;8.45;;;;;;;;;;5052332;28;20044;-62
2022/03/27 08:12:09;;;;;;;53.10;8.57;;;;;;;;;;5053221;28;20485;-63
2022/03/27 08:14:36;;;;;;;48.22;9.20;;;;;;;;;;5034613;28;20041;-63
2022/03/27 08:17:03;;;;;;;45.30;8.80;;;;;;;;;;5053140;28;20514;-62
2022/03/27 08:19:29;;;;;;;54.95;8.98;;;;;;;;;;5053226;28;20037;-63
2022/03/27 08:21:55;;;;;;;52.13;10.27;;;;;;;;;;5052280;28;20044;-63
2022/03/27 08:24:22;;;;;;;50.40;7.63;;;;;;;;;;5053076;28;20621;-63
2022/03/27 08:26:56;;;;;;;47.75;7.97;;;;;;;;;;5052914;28;20497;-63
2022/03/27 08:29:24;;;;;;;44.22;8.32;;;;;;;;;;5034201;28;20183;-62
2022/03/27 08:31:50;;;;;;;55.75;8.73;;;;;;;;;;5052568;28;20060;-63
2022/03/27 08:34:18;;;;;;;46.00;8.52;;;;;;;;;;5052920;28;20103;-63
2022/03/27 08:36:44;;;;;;;49.33;9.43;;;;;;;;;;5051900;28;20558;-63
2022/03/27 08:39:11;;;;;;;47.05;8.57;;;;;;;;;;5052713;28;20179;-63
2022/03/27 08:41:40;;;;;;;41.13;9.27;;;;;;;;;;5052542;28;20120;-63
2022/03/27 08:44:07;;;;;;;42.33;8.02;;;;;;;;;;5052132;28;20055;-62
2022/03/27 08:46:34;;;;;;;40.50;7.75;;;;;;;;;;5052911;28;20053;-63
2022/03/27 08:49:01;;;;;;;49.97;9.60;;;;;;;;;;5034748;28;20464;-63
2022/03/27 08:51:30;;;;;;;37.13;7.65;;;;;;;;;;5049918;28;20041;-63
2022/03/27 08:54:03;;;;;;;35.90;8.18;;;;;;;;;;5051356;28;20048;-62
2022/03/27 08:56:30;;;;;;;47.22;9.02;;;;;;;;;;5065896;28;20045;-62
2022/03/27 08:58:58;;;;;;;40.60;8.15;;;;;;;;;;5050301;28;20094;-64
2022/03/27 09:01:25;;;;;;;40.50;6.97;;;;;;;;;;5047040;28;20136;-63
2022/03/27 09:03:51;;;;;;;44.47;7.75;;;;;;;;;;5040100;28;20033;-63
2022/03/27 09:06:17;;;;;;;42.35;8.77;;;;;;;;;;5039844;28;20047;-62
2022/03/27 09:08:43;;;;;;;41.97;7.90;;;;;;;;;;5013943;28;20049;-63
2022/03/27 09:11:15;;;;;;;41.05;6.70;;;;;;;;;;5019735;28;20048;-63
2022/03/27 09:13:43;;;;;;;40.38;7.00;;;;;;;;;;5041009;28;20037;-63
2022/03/27 09:16:09;;;;;;;33.17;7.32;;;;;;;;;;5063829;28;20056;-63
2022/03/27 09:18:47;;;;;;;33.08;7.32;;;;;;;;;;5033295;28;20389;-63
2022/03/27 09:21:14;;;;;;;40.22;7.63;;;;;;;;;;5032995;28;20056;-63
2022/03/27 09:23:40;;;;;;;35.40;7.97;;;;;;;;;;5050417;28;20488;-62
2022/03/27 09:26:07;;;;;;;37.22;7.40;;;;;;;;;;5050802;28;20036;-64
2022/03/27 09:28:35;;;;;;;29.55;6.97;;;;;;;;;;5052162;28;20087;-62
2022/03/27 09:31:03;;;;;;;40.30;9.98;;;;;;;;;;5067054;28;20123;-63
2022/03/27 09:33:31;;;;;;;34.25;8.30;;;;;;;;;;5049649;28;20069;-63
2022/03/27 09:36:04;;;;;;;29.10;7.40;;;;;;;;;;5066066;28;20052;-62
2022/03/27 09:38:31;;;;;;;30.10;6.88;;;;;;;;;;5050487;28;20436;-62
2022/03/27 09:40:57;;;;;;;33.88;7.63;;;;;;;;;;5065840;28;20427;-62
2022/03/27 09:43:23;;;;;;;30.55;6.43;;;;;;;;;;5050681;28;20459;-63
2022/03/27 09:45:56;;;;;;;22.13;4.85;;;;;;;;;;5050953;28;20397;-63
2022/03/27 09:48:22;;;;;;;29.48;6.82;;;;;;;;;;5062166;28;20045;-63
2022/03/27 09:50:48;;;;;;;26.55;6.05;;;;;;;;;;5051016;28;20041;-63
2022/03/27 09:53:20;;;;;;;30.05;6.35;;;;;;;;;;5050084;28;20480;-63
2022/03/27 09:55:51;;;;;;;24.08;6.65;;;;;;;;;;5050228;28;20120;-63
2022/03/27 09:58:32;;;;;;;31.27;6.85;;;;;;;;;;5050369;28;20048;-63
2022/03/27 10:01:08;;;;;;;27.67;5.85;;;;;;;;;;5043247;28;20076;-63
2022/03/27 10:03:35;;;;;;;28.60;6.70;;;;;;;;;;5066397;28;20085;-63
2022/03/27 10:06:04;;;;;;;30.95;6.85;;;;;;;;;;5050758;28;20037;-63
2022/03/27 10:08:31;;;;;;;25.30;6.97;;;;;;;;;;5050333;28;20434;-63
2022/03/27 10:10:58;;;;;;;18.77;5.45;;;;;;;;;;5051582;28;20548;-63
2022/03/27 10:13:27;;;;;;;25.15;6.47;;;;;;;;;;5051520;28;20094;-63
2022/03/27 10:15:54;;;;;;;24.90;5.75;;;;;;;;;;5049456;28;20041;-63
2022/03/27 10:18:21;;;;;;;24.15;6.25;;;;;;;;;;5051364;28;20088;-63
2022/03/27 10:20:51;;;;;;;22.20;5.60;;;;;;;;;;5053879;28;20327;-63
2022/03/27 10:23:20;;;;;;;18.48;6.20;;;;;;;;;;5054475;28;20503;-63
2022/03/27 10:25:50;;;;;;;25.23;6.10;;;;;;;;;;5049004;28;20041;-63
2022/03/27 10:28:18;;;;;;;25.77;6.30;;;;;;;;;;5070200;28;20049;-63
2022/03/27 10:30:44;;;;;;;22.33;6.20;;;;;;;;;;5036465;28;20396;-63
2022/03/27 10:33:11;;;;;;;23.48;6.65;;;;;;;;;;5053682;28;20392;-63
2022/03/27 10:35:53;;;;;;;20.10;5.80;;;;;;;;;;5068173;28;20079;-62
2022/03/27 10:38:28;;;;;;;22.63;5.18;;;;;;;;;;5046721;28;20045;-63
2022/03/27 10:41:06;;;;;;;17.50;4.15;;;;;;;;;;5065431;28;20045;-63
2022/03/27 10:43:47;;;;;;;20.80;4.63;;;;;;;;;;5049271;28;20063;-76
2022/03/27 10:46:21;;;;;;;17.20;4.10;;;;;;;;;;5048207;28;20134;-63
2022/03/27 10:48:49;;;;;;;17.95;5.20;;;;;;;;;;5046389;28;20107;-63
2022/03/27 10:51:29;;;;;;;23.40;5.82;;;;;;;;;;5063342;28;20045;-63
2022/03/27 10:54:08;;;;;;;21.25;5.32;;;;;;;;;;5051633;28;20033;-63
2022/03/27 10:56:36;;;;;;;19.65;5.43;;;;;;;;;;5034014;28;20079;-63
2022/03/27 10:59:11;;;;;;;17.20;3.95;;;;;;;;;;5051261;28;20086;-63
2022/03/27 11:01:39;;;;;;;19.42;5.15;;;;;;;;;;5032166;28;20052;-62
2022/03/27 11:04:08;;;;;;;20.10;5.07;;;;;;;;;;5035061;28;20151;-63
2022/03/27 11:06:36;;;;;;;17.60;4.30;;;;;;;;;;5051380;28;20167;-63
2022/03/27 11:09:05;;;;;;;19.08;4.82;;;;;;;;;;5055646;28;20056;-63
2022/03/27 11:11:34;;;;;;;16.73;4.50;;;;;;;;;;5052155;28;20052;-63
2022/03/27 11:14:01;;;;;;;16.73;3.45;;;;;;;;;;5052546;28;20033;-73
2022/03/27 11:16:27;;;;;;;17.08;3.80;;;;;;;;;;5031332;28;20048;-63
2022/03/27 11:18:53;;;;;;;13.32;4.13;;;;;;;;;;5048727;28;20159;-63
2022/03/27 11:21:42;;;;;;;13.57;3.72;;;;;;;;;;5048475;28;20136;-63
2022/03/27 11:24:09;;;;;;;17.45;5.30;;;;;;;;;;5051044;28;20052;-63
2022/03/27 11:26:35;;;;;;;14.00;3.92;;;;;;;;;;5050290;28;20045;-64
2022/03/27 11:29:05;;;;;;;13.50;3.38;;;;;;;;;;5028834;28;20041;-72
2022/03/27 11:31:33;;;;;;;14.68;4.75;;;;;;;;;;5023195;28;20076;-64
2022/03/27 11:34:05;;;;;;;16.67;5.07;;;;;;;;;;5045579;28;20052;-63
2022/03/27 11:36:32;;;;;;;19.37;4.80;;;;;;;;;;5045668;28;20053;-63
2022/03/27 11:39:02;;;;;;;13.13;4.25;;;;;;;;;;5028356;28;20048;-64
2022/03/27 11:41:34;;;;;;;13.45;4.35;;;;;;;;;;5029359;28;20045;-63
2022/03/27 11:44:19;;;;;;;13.70;3.80;;;;;;;;;;5029674;28;20349;-63
2022/03/27 11:46:48;;;;;;;12.18;3.45;;;;;;;;;;5047354;28;20045;-64
2022/03/27 11:49:14;;;;;;;10.98;3.53;;;;;;;;;;5051609;28;20088;-63
2022/03/27 11:51:41;;;;;;;11.10;3.67;;;;;;;;;;5033420;28;20044;-64
2022/03/27 11:54:18;;;;;;;10.30;3.17;;;;;;;;;;5032199;28;20051;-63
2022/03/27 11:56:54;;;;;;;14.25;4.28;;;;;;;;;;5046064;28;20049;-63
2022/03/27 11:59:20;;;;;;;13.57;3.70;;;;;;;;;;5047673;28;21176;-63
2022/03/27 12:01:50;;;;;;;16.10;3.65;;;;;;;;;;5046438;28;20048;-64
2022/03/27 12:04:18;;;;;;;11.48;2.90;;;;;;;;;;5044607;28;20044;-63
2022/03/27 12:06:44;;;;;;;11.63;2.45;;;;;;;;;;5055918;28;20497;-63
2022/03/27 12:09:22;;;;;;;16.08;4.00;;;;;;;;;;5044340;28;20029;-64
2022/03/27 12:12:02;;;;;;;14.45;3.13;;;;;;;;;;5028432;28;20052;-63
2022/03/27 12:14:28;;;;;;;14.95;4.03;;;;;;;;;;5029068;28;20049;-63
2022/03/27 12:16:55;;;;;;;15.77;3.55;;;;;;;;;;5045488;28;20053;-86
2022/03/27 12:19:21;;;;;;;16.08;4.32;;;;;;;;;;5025596;28;20124;-64
2022/03/27 12:21:47;;;;;;;14.65;4.55;;;;;;;;;;5050576;28;20053;-64
2022/03/27 12:24:16;;;;;;;17.25;3.88;;;;;;;;;;5051210;28;20055;-64
2022/03/27 12:29:40;;;;;;;17.90;3.90;;;;;;;;;;5046256;28;20067;-64
2022/03/27 12:32:08;;;;;;;13.45;4.07;;;;;;;;;;5046992;28;20061;-63
2022/03/27 12:34:35;;;;;;;17.60;4.20;;;;;;;;;;5041472;28;20044;-63
2022/03/27 12:37:09;;;;;;;15.93;4.10;;;;;;;;;;5041721;28;20068;-66
2022/03/27 12:39:37;;;;;;;21.60;5.70;;;;;;;;;;5022486;28;20049;-65
2022/03/27 12:42:03;;;;;;;15.45;4.57;;;;;;;;;;5047121;28;20124;-63
2022/03/27 12:44:49;;;;;;;12.88;3.60;;;;;;;;;;5061244;28;20104;-64
2022/03/27 12:47:15;;;;;;;12.57;3.60;;;;;;;;;;5043375;28;20041;-63
2022/03/27 12:49:49;;;;;;;17.15;3.70;;;;;;;;;;5041814;28;20053;-67
2022/03/27 12:52:15;;;;;;;16.40;4.15;;;;;;;;;;5063707;28;20049;-66
2022/03/27 12:54:58;;;;;;;12.48;3.45;;;;;;;;;;5046380;28;20072;-63
2022/03/27 12:57:25;;;;;;;13.07;3.53;;;;;;;;;;5059558;28;20101;-65
2022/03/27 12:59:51;;;;;;;11.60;3.58;;;;;;;;;;5045079;28;20060;-64
2022/03/27 13:02:28;;;;;;;13.85;4.15;;;;;;;;;;5062330;28;20049;-64
2022/03/27 13:04:58;;;;;;;15.85;4.47;;;;;;;;;;5046942;28;20486;-63
2022/03/27 13:07:45;;;;;;;14.23;4.25;;;;;;;;;;5044367;28;20049;-63
2022/03/27 13:10:12;;;;;;;16.83;4.75;;;;;;;;;;5050326;28;20499;-63
2022/03/27 13:12:38;;;;;;;13.48;3.78;;;;;;;;;;5024113;28;20481;-63
2022/03/27 13:15:04;;;;;;;13.90;3.95;;;;;;;;;;5051186;28;20036;-63
2022/03/27 13:17:31;;;;;;;13.25;3.75;;;;;;;;;;5042275;28;20120;-64
2022/03/27 13:19:57;;;;;;;15.30;3.83;;;;;;;;;;5041565;28;20059;-64
2022/03/27 13:22:23;;;;;;;16.35;4.03;;;;;;;;;;5024400;28;20254;-63
2022/03/27 13:24:50;;;;;;;19.67;4.53;;;;;;;;;;5040657;28;20064;-64
2022/03/27 13:27:16;;;;;;;18.13;3.75;;;;;;;;;;5042139;28;20436;-63
2022/03/27 13:29:42;;;;;;;17.77;4.90;;;;;;;;;;5044839;28;20426;-63
2022/03/27 13:32:09;;;;;;;18.00;4.57;;;;;;;;;;5046425;28;20053;-63
2022/03/27 13:34:36;;;;;;;14.40;4.13;;;;;;;;;;5057385;28;20052;-63
2022/03/27 13:37:02;;;;;;;17.77;4.80;;;;;;;;;;5044282;28;20033;-63
2022/03/27 13:39:28;;;;;;;21.42;5.05;;;;;;;;;;5061325;28;20048;-62
2022/03/27 13:44:40;;;;;;;20.13;5.47;;;;;;;;;;5042969;28;20093;-62
2022/03/27 13:47:07;;;;;;;18.77;4.68;;;;;;;;;;5031455;28;20037;-64
2022/03/27 13:49:34;;;;;;;22.88;4.55;;;;;;;;;;5048095;28;20060;-63
2022/03/27 13:52:00;;;;;;;23.00;4.55;;;;;;;;;;5027285;28;20044;-63
2022/03/27 13:54:26;;;;;;;19.45;5.28;;;;;;;;;;5044045;28;20057;-63
2022/03/27 13:56:53;;;;;;;25.88;5.05;;;;;;;;;;5052151;28;20072;-63
2022/03/27 13:59:20;;;;;;;20.38;5.07;;;;;;;;;;5049906;28;21567;-62
2022/03/27 14:01:47;;;;;;;22.52;5.10;;;;;;;;;;5051493;28;20094;-63
2022/03/27 14:04:15;;;;;;;19.73;4.95;;;;;;;;;;5047977;28;20056;-63
2022/03/27 14:06:42;;;;;;;27.23;4.90;;;;;;;;;;5066700;28;20056;-63
2022/03/27 14:09:08;;;;;;;24.25;5.22;;;;;;;;;;5050482;28;21522;-63
2022/03/27 14:11:35;;;;;;;19.17;4.90;;;;;;;;;;5031643;28;20033;-63
2022/03/27 14:14:01;;;;;;;23.75;5.10;;;;;;;;;;5031722;28;20548;-63
2022/03/27 14:16:28;;;;;;;24.35;5.45;;;;;;;;;;5031550;28;20085;-63
2022/03/27 14:18:55;;;;;;;19.25;5.22;;;;;;;;;;5052081;28;20053;-62
2022/03/27 14:21:21;;;;;;;22.95;5.47;;;;;;;;;;5053050;28;20480;-63
2022/03/27 14:23:47;;;;;;;23.33;5.45;;;;;;;;;;5063428;28;20523;-64
2022/03/27 14:26:14;;;;;;;24.80;4.90;;;;;;;;;;5049950;28;20068;-64
2022/03/27 14:28:41;;;;;;;18.83;4.65;;;;;;;;;;5030941;28;20075;-64
2022/03/27 14:31:07;;;;;;;20.00;4.05;;;;;;;;;;5065573;28;20056;-66
2022/03/27 14:33:33;;;;;;;24.38;5.28;;;;;;;;;;5065756;28;20041;-64
2022/03/27 14:35:59;;;;;;;26.00;5.55;;;;;;;;;;5051874;28;20045;-63
2022/03/27 14:38:26;;;;;;;15.80;3.72;;;;;;;;;;5052085;28;20427;-64
2022/03/27 14:40:55;;;;;;;19.38;3.88;;;;;;;;;;5050388;28;20420;-64
2022/03/27 14:43:22;;;;;;;18.65;4.47;;;;;;;;;;5045725;28;20055;-63
2022/03/27 14:45:51;;;;;;;18.25;4.13;;;;;;;;;;5030433;28;20048;-64